Terminal Aerodrome Forecast
Issued by NWS Wilmington, OH

Current Version | Previous Version | Graphics & Text | Print | Product List | Glossary On
Versions: 1 2 3 4 5 6 7 8 9 10 11 12 13 14
935
FTUS41 KILN 171500 AAA
TAFCMH
TAF AMD
KCMH 171500Z 1715/1812 21010KT P6SM FEW250
     FM172300 19003KT P6SM SKC=

USA.gov is the U.S. government's official web portal to all federal, state and local government web resources and services.